Time;durP1;ratioP1;P1;durP2;ratioP2;P2;SDS_P1;SDS_P2;PMS_P1;PMS_P2;Temp;Humidity;BMP_temperature;BMP_pressure;BME280_temperature;BME280_humidity;BME280_pressure;Samples;Min_cycle;Max_cycle;Signal;HPM_P1;HPM_P2
2023/11/18 00:00:46;;;;;;;;;22.00;21.00;;;;;15.02;100.00;101813.75;2097246;28;46548;-48
2023/11/18 00:01:46;;;;;;;;;25.50;25.50;;;;;15.04;100.00;101810.16;2099924;28;46632;-53
2023/11/18 00:02:46;;;;;;;;;22.75;18.50;;;;;14.93;100.00;101808.59;2105878;28;46378;-50
2023/11/18 00:03:47;;;;;;;;;23.00;23.00;;;;;14.91;100.00;101799.75;2105558;28;46865;-52
2023/11/18 00:04:48;;;;;;;;;23.40;23.40;;;;;14.88;100.00;101799.81;2105852;28;46931;-50
2023/11/18 00:05:48;;;;;;;;;25.00;24.50;;;;;14.87;100.00;101805.19;2103973;28;46540;-52
2023/11/18 00:06:48;;;;;;;;;25.25;22.00;;;;;15.51;100.00;101790.31;2106237;28;46465;-55
2023/11/18 00:07:50;;;;;;;;;24.50;23.50;;;;;15.54;100.00;101785.75;2105701;28;46815;-53
2023/11/18 00:08:50;;;;;;;;;24.80;23.80;;;;;15.75;100.00;101787.03;2105655;28;46446;-54
2023/11/18 00:09:50;;;;;;;;;22.25;22.00;;;;;15.04;100.00;101797.66;2105737;28;46453;-53
2023/11/18 00:10:51;;;;;;;;;24.75;24.25;;;;;15.05;100.00;101799.41;2105770;28;46411;-51
2023/11/18 00:11:51;;;;;;;;;23.75;23.00;;;;;15.02;100.00;101794.16;2102954;27;46389;-51
2023/11/18 00:12:51;;;;;;;;;22.25;22.25;;;;;15.01;100.00;101798.63;2101294;28;45989;-50
2023/11/18 00:13:52;;;;;;;;;23.25;22.00;;;;;14.92;100.00;101798.81;2106038;28;46728;-50
2023/11/18 00:14:52;;;;;;;;;26.00;24.50;;;;;14.97;100.00;101804.06;2105399;28;46924;-51
2023/11/18 00:15:53;;;;;;;;;28.25;26.75;;;;;14.98;100.00;101798.66;2105770;28;47060;-50
2023/11/18 00:16:53;;;;;;;;;25.25;25.25;;;;;14.97;100.00;101801.38;2105935;28;46718;-50
2023/11/18 00:17:53;;;;;;;;;22.25;22.25;;;;;15.09;100.00;101803.78;2102735;28;46456;-50
2023/11/18 00:18:53;;;;;;;;;25.00;24.25;;;;;15.13;100.00;101807.28;2101648;28;46696;-53
2023/11/18 00:19:54;;;;;;;;;23.25;23.25;;;;;15.02;100.00;101807.53;2101869;28;46507;-53
2023/11/18 00:20:57;;;;;;;;;29.00;26.75;;;;;15.09;100.00;101814.47;2103117;27;46885;-54
2023/11/18 00:21:57;;;;;;;;;26.80;24.00;;;;;15.12;100.00;101813.50;2106058;28;47062;-54
2023/11/18 00:22:57;;;;;;;;;28.75;28.50;;;;;15.11;100.00;101814.44;2105726;28;47082;-50
2023/11/18 00:23:58;;;;;;;;;24.00;23.50;;;;;15.07;100.00;101818.97;2100142;27;46389;-50
2023/11/18 00:24:58;;;;;;;;;23.75;23.00;;;;;15.12;100.00;101818.84;2098173;28;46247;-54
2023/11/18 00:25:58;;;;;;;;;30.50;28.50;;;;;15.10;100.00;101820.69;2106025;28;46790;-52
2023/11/18 00:26:59;;;;;;;;;29.25;28.50;;;;;15.11;100.00;101822.44;2105867;28;46263;-52
2023/11/18 00:27:59;;;;;;;;;32.50;28.50;;;;;15.01;100.00;101822.69;2099499;28;46331;-55
2023/11/18 00:29:02;;;;;;;;;29.75;28.00;;;;;14.98;100.00;101821.84;2104578;28;46793;-53
2023/11/18 00:30:11;;;;;;;;;32.00;27.20;;;;;15.06;100.00;101822.56;2103634;27;46361;-48
2023/11/18 00:31:11;;;;;;;;;26.60;25.80;;;;;15.07;100.00;101818.97;2102985;28;46757;-52
2023/11/18 00:32:11;;;;;;;;;27.00;24.25;;;;;15.08;100.00;101823.41;2104424;28;46528;-52
2023/11/18 00:33:11;;;;;;;;;26.50;26.50;;;;;15.06;100.00;101827.03;2104400;28;46192;-51
2023/11/18 00:34:12;;;;;;;;;33.50;29.25;;;;;15.05;100.00;101833.28;2101077;27;46517;-50
2023/11/18 00:35:12;;;;;;;;;32.25;30.25;;;;;15.06;100.00;101824.34;2106336;28;46708;-53
2023/11/18 00:36:13;;;;;;;;;31.50;30.00;;;;;15.06;100.00;101822.56;2105621;28;46603;-50
2023/11/18 00:37:13;;;;;;;;;29.00;28.25;;;;;15.08;100.00;101822.53;2105611;28;46691;-51
2023/11/18 00:38:14;;;;;;;;;29.25;29.25;;;;;15.09;100.00;101824.28;2105414;28;46249;-50
2023/11/18 00:39:14;;;;;;;;;33.75;30.50;;;;;15.10;100.00;101820.69;2106402;28;46373;-49
2023/11/18 00:40:17;;;;;;;;;33.00;30.50;;;;;15.06;100.00;101821.69;2105188;28;46333;-46
2023/11/18 00:41:18;;;;;;;;;32.40;29.20;;;;;15.08;100.00;101810.03;2097422;28;46571;-50
2023/11/18 00:42:18;;;;;;;;;28.25;28.25;;;;;15.09;100.00;101813.59;2103660;28;46797;-50
2023/11/18 00:43:18;;;;;;;;;25.75;24.50;;;;;15.00;100.00;101814.69;2105648;28;46688;-49
2023/11/18 00:44:19;;;;;;;;;29.75;29.00;;;;;15.06;100.00;101814.53;2098886;28;46342;-53
2023/11/18 00:45:19;;;;;;;;;32.50;30.00;;;;;15.07;100.00;101804.72;2101858;28;46072;-52
2023/11/18 00:46:20;;;;;;;;;33.00;31.50;;;;;15.08;100.00;101809.16;2105894;28;46521;-51
2023/11/18 00:47:23;;;;;;;;;33.40;31.00;;;;;15.00;100.00;101799.53;2101823;27;46732;-50
2023/11/18 00:48:23;;;;;;;;;33.00;31.00;;;;;14.96;100.00;101802.28;2105213;28;46286;-52
2023/11/18 00:49:23;;;;;;;;;30.25;29.50;;;;;15.03;100.00;101806.59;2104968;28;46878;-51
2023/11/18 00:50:26;;;;;;;;;31.60;30.00;;;;;15.04;100.00;101797.66;2096737;28;46994;-53
2023/11/18 00:51:27;;;;;;;;;33.00;30.60;;;;;15.01;100.00;101789.72;2096758;28;46730;-50
2023/11/18 00:52:28;;;;;;;;;28.75;28.50;;;;;14.96;100.00;101794.28;2096430;28;46433;-52
2023/11/18 00:53:29;;;;;;;;;32.00;30.75;;;;;15.01;100.00;101803.09;2080073;28;46339;-53
2023/11/18 00:54:30;;;;;;;;;28.00;27.00;;;;;14.95;100.00;101801.41;2088747;28;46486;-49
2023/11/18 00:55:31;;;;;;;;;29.00;27.25;;;;;14.89;100.00;101798.03;2107687;27;46672;-52
2023/11/18 00:56:32;;;;;;;;;32.80;30.40;;;;;14.96;100.00;101796.94;2107503;27;45794;-54
2023/11/18 00:57:32;;;;;;;;;28.50;26.25;;;;;14.81;100.00;101786.59;2105351;28;46393;-53
2023/11/18 00:58:35;;;;;;;;;27.75;27.75;;;;;14.84;100.00;101789.22;2105490;28;46751;-54
2023/11/18 00:59:35;;;;;;;;;29.20;27.20;;;;;14.96;100.00;101791.59;2105711;28;46554;-52
2023/11/18 01:00:36;;;;;;;;;28.00;28.00;;;;;14.89;100.00;101790.88;2105753;28;47048;-49
2023/11/18 01:01:36;;;;;;;;;28.25;28.25;;;;;14.99;100.00;101784.41;2103921;28;46379;-53
2023/11/18 01:02:38;;;;;;;;;29.50;29.50;;;;;14.97;100.00;101791.56;2099475;28;46274;-51
2023/11/18 01:03:38;;;;;;;;;25.40;25.00;;;;;14.99;100.00;101787.09;2101288;27;46899;-52
2023/11/18 01:04:39;;;;;;;;;30.75;27.25;;;;;15.01;100.00;101782.59;2100764;28;46368;-51
2023/11/18 01:05:39;;;;;;;;;30.50;28.00;;;;;14.95;100.00;101785.38;2105615;28;46289;-51
2023/11/18 01:06:39;;;;;;;;;25.75;24.75;;;;;14.92;100.00;101781.91;2105413;28;46724;-48
2023/11/18 01:07:40;;;;;;;;;28.00;26.25;;;;;14.90;100.00;101786.41;2086823;28;46818;-51
2023/11/18 01:08:44;;;;;;;;;28.25;25.25;;;;;14.88;100.00;101786.44;2087466;28;46464;-53
2023/11/18 01:09:45;;;;;;;;;28.20;27.60;;;;;15.40;100.00;101781.66;2104889;28;46624;-53
2023/11/18 01:10:45;;;;;;;;;25.00;24.60;;;;;14.97;100.00;101786.22;2105695;28;45343;-51
2023/11/18 01:11:46;;;;;;;;;25.25;25.25;;;;;14.94;100.00;101766.72;2102312;28;46868;-49
2023/11/18 01:12:46;;;;;;;;;23.75;21.00;;;;;14.91;100.00;101772.13;2104028;28;46338;-50
2023/11/18 01:13:47;;;;;;;;;26.75;24.75;;;;;14.77;100.00;101774.25;2104960;28;46351;-53
2023/11/18 01:14:47;;;;;;;;;24.00;24.00;;;;;14.84;100.00;101779.41;2097644;28;46340;-49
2023/11/18 01:15:48;;;;;;;;;28.25;28.00;;;;;14.85;100.00;101772.25;2101146;28;46314;-50
2023/11/18 01:16:49;;;;;;;;;26.20;25.00;;;;;14.88;100.00;101773.09;2105387;28;46790;-52
2023/11/18 01:17:49;;;;;;;;;22.50;20.75;;;;;14.88;100.00;101770.41;2104996;28;46256;-52
2023/11/18 01:18:50;;;;;;;;;28.25;27.75;;;;;14.88;100.00;101767.75;2105392;28;46438;-51
2023/11/18 01:19:50;;;;;;;;;28.25;28.25;;;;;14.88;100.00;101770.41;2104052;27;46850;-52
2023/11/18 01:20:51;;;;;;;;;24.75;24.75;;;;;14.84;100.00;101766.03;2104776;28;46246;-51
2023/11/18 01:21:53;;;;;;;;;23.50;23.50;;;;;14.97;100.00;101778.19;2103327;28;46172;-51
2023/11/18 01:22:53;;;;;;;;;26.40;25.80;;;;;14.99;100.00;101772.81;2101203;28;46606;-51
2023/11/18 01:23:54;;;;;;;;;27.50;26.75;;;;;14.89;100.00;101773.97;2103653;27;46883;-51
2023/11/18 01:24:54;;;;;;;;;25.75;25.75;;;;;14.87;100.00;101768.66;2104553;28;46380;-48
2023/11/18 01:25:55;;;;;;;;;26.50;25.75;;;;;14.86;100.00;101774.00;2104367;28;46642;-51
2023/11/18 01:26:56;;;;;;;;;26.00;24.00;;;;;14.85;100.00;101764.22;2096870;28;46572;-49
2023/11/18 01:27:56;;;;;;;;;25.00;25.00;;;;;14.85;100.00;101764.22;2083653;28;46376;-55
2023/11/18 01:28:56;;;;;;;;;25.75;25.75;;;;;14.84;100.00;101766.03;2093327;28;46980;-52
2023/11/18 01:29:57;;;;;;;;;24.50;24.00;;;;;14.83;100.00;101761.59;2105399;28;46356;-51
2023/11/18 01:30:57;;;;;;;;;27.25;26.00;;;;;14.93;100.00;101752.47;2104903;28;46429;-53
2023/11/18 01:31:58;;;;;;;;;22.25;22.25;;;;;14.87;100.00;101755.28;2105319;28;46705;-48
2023/11/18 01:33:01;;;;;;;;;24.75;23.75;;;;;14.87;100.00;101757.09;2105114;28;46619;-51
2023/11/18 01:34:04;;;;;;;;;28.00;25.20;;;;;14.85;100.00;101751.75;2099566;28;46509;-53
2023/11/18 01:35:04;;;;;;;;;24.20;23.80;;;;;14.85;100.00;101749.09;2099150;27;46705;-49
2023/11/18 01:36:06;;;;;;;;;22.75;21.25;;;;;14.77;100.00;101758.22;2104836;27;46070;-54
2023/11/18 01:37:07;;;;;;;;;27.20;24.20;;;;;14.82;100.00;101758.97;2104604;27;46557;-53
2023/11/18 01:38:07;;;;;;;;;21.60;21.40;;;;;14.80;100.00;101759.00;2101212;28;46062;-53
2023/11/18 01:39:07;;;;;;;;;24.50;23.00;;;;;14.82;100.00;101757.19;2099288;27;46357;-52
2023/11/18 01:40:08;;;;;;;;;26.75;26.75;;;;;14.85;100.00;101751.75;2098906;28;46496;-50
2023/11/18 01:41:09;;;;;;;;;23.50;21.50;;;;;14.85;100.00;101762.44;2102284;28;46674;-50
2023/11/18 01:42:09;;;;;;;;;28.25;26.50;;;;;14.85;100.00;101759.78;2099150;28;46555;-51
2023/11/18 01:43:12;;;;;;;;;25.75;25.75;;;;;14.86;100.00;101752.63;2102316;28;46621;-54
2023/11/18 01:44:15;;;;;;;;;25.60;24.20;;;;;14.89;100.00;101753.47;2105347;28;47000;-50
2023/11/18 01:45:19;;;;;;;;;20.00;18.40;;;;;15.00;100.00;101755.91;2105465;28;46677;-53
2023/11/18 01:46:21;;;;;;;;;29.20;27.40;;;;;15.00;100.00;101751.41;2105367;28;46840;-52
2023/11/18 01:47:22;;;;;;;;;27.00;25.60;;;;;14.92;100.00;101741.81;2104527;28;46537;-52
2023/11/18 01:48:22;;;;;;;;;29.25;27.75;;;;;14.88;100.00;101738.34;2105386;28;45711;-47
2023/11/18 01:49:24;;;;;;;;;26.75;26.00;;;;;14.85;100.00;101738.38;2104013;28;46814;-50
2023/11/18 01:50:24;;;;;;;;;32.60;27.80;;;;;14.75;100.00;101731.53;2099265;27;47010;-50
2023/11/18 01:51:25;;;;;;;;;23.25;21.75;;;;;14.81;100.00;101728.69;2101979;27;46628;-49
2023/11/18 01:52:29;;;;;;;;;26.80;26.60;;;;;14.93;100.00;101727.53;2105541;28;46353;-52
2023/11/18 01:53:31;;;;;;;;;27.00;24.60;;;;;14.93;100.00;101724.84;2104825;28;46507;-52
2023/11/18 01:54:32;;;;;;;;;25.60;25.60;;;;;14.88;100.00;101719.63;2105319;28;46391;-52
2023/11/18 01:55:34;;;;;;;;;23.80;21.80;;;;;15.08;100.00;101720.94;2104083;27;46435;-47
2023/11/18 01:56:34;;;;;;;;;24.00;22.00;;;;;14.78;100.00;101717.22;2103829;28;46162;-50
2023/11/18 01:57:35;;;;;;;;;20.50;19.75;;;;;14.93;100.00;101712.38;2104895;28;46522;-48
2023/11/18 01:58:36;;;;;;;;;20.50;18.00;;;;;14.93;100.00;101722.19;2096040;28;46772;-49
2023/11/18 01:59:40;;;;;;;;;20.20;19.60;;;;;14.77;100.00;101721.69;2096328;28;46908;-53
2023/11/18 02:00:46;;;;;;;;;20.40;17.00;;;;;14.83;100.00;101712.63;2104973;28;46419;-50
2023/11/18 02:01:49;;;;;;;;;16.80;15.20;;;;;15.44;100.00;101716.47;2105324;28;46305;-51
2023/11/18 02:02:50;;;;;;;;;18.40;17.00;;;;;15.47;100.00;101711.03;2104763;28;46682;-51
2023/11/18 02:03:50;;;;;;;;;17.25;16.00;;;;;15.71;100.00;101705.06;2101666;27;46497;-52
2023/11/18 02:04:50;;;;;;;;;17.00;17.00;;;;;15.73;100.00;101713.03;2096271;28;46643;-54
2023/11/18 02:05:51;;;;;;;;;16.50;16.00;;;;;15.17;100.00;101712.69;2099666;28;46706;-53
2023/11/18 02:06:52;;;;;;;;;17.00;17.00;;;;;15.10;100.00;101713.75;2105358;28;45855;-48
2023/11/18 02:07:53;;;;;;;;;17.25;16.00;;;;;14.99;100.00;101720.25;2104611;28;46495;-53
2023/11/18 02:08:53;;;;;;;;;15.50;15.50;;;;;14.95;100.00;101723.91;2095845;28;46223;-50
2023/11/18 02:09:55;;;;;;;;;17.75;17.75;;;;;14.81;100.00;101728.69;2096307;28;46102;-51
2023/11/18 02:11:06;;;;;;;;;15.60;15.40;;;;;14.84;100.00;101725.06;2095415;28;46209;-53
2023/11/18 02:12:29;;;;;;;;;19.80;19.00;;;;;14.78;100.00;101726.09;2096611;28;46173;-50
2023/11/18 02:13:32;;;;;;;;;19.20;16.80;;;;;14.84;100.00;101715.25;2103136;28;46273;-51
2023/11/18 02:14:37;;;;;;;;;21.60;20.40;;;;;14.93;100.00;101715.03;2104772;28;46573;-51
2023/11/18 02:15:39;;;;;;;;;17.20;17.20;;;;;14.78;100.00;101711.88;2094052;28;47041;-49
2023/11/18 02:16:40;;;;;;;;;17.20;17.20;;;;;14.82;100.00;101716.22;2088939;28;46480;-51
2023/11/18 02:17:43;;;;;;;;;19.80;19.20;;;;;14.84;100.00;101720.59;2103055;28;46669;-51
2023/11/18 02:18:46;;;;;;;;;20.20;17.60;;;;;14.86;100.00;101724.09;2103250;28;46415;-51
2023/11/18 02:19:47;;;;;;;;;19.80;18.20;;;;;14.90;100.00;101722.25;2101031;28;46574;-50
2023/11/18 02:20:49;;;;;;;;;20.80;18.40;;;;;14.96;100.00;101725.66;2103833;28;47133;-51
2023/11/18 02:21:52;;;;;;;;;17.20;17.00;;;;;14.87;100.00;101725.91;2104705;28;46766;-49
2023/11/18 02:22:52;;;;;;;;;21.00;20.00;;;;;14.84;100.00;101717.94;2101009;28;47025;-49
2023/11/18 02:23:52;;;;;;;;;17.25;16.50;;;;;14.83;100.00;101721.50;2105325;28;45737;-52
2023/11/18 02:24:53;;;;;;;;;19.75;18.75;;;;;14.94;100.00;101726.63;2105586;27;46827;-55
2023/11/18 02:25:53;;;;;;;;;20.00;20.00;;;;;14.90;100.00;101723.16;2096723;28;46663;-51
2023/11/18 02:26:57;;;;;;;;;16.75;15.75;;;;;14.96;100.00;101733.69;2100213;28;46581;-51
2023/11/18 02:27:57;;;;;;;;;18.20;18.20;;;;;14.95;100.00;101726.56;2104996;28;46880;-52
2023/11/18 02:28:58;;;;;;;;;20.00;18.00;;;;;14.84;100.00;101719.72;2103693;28;46783;-50
2023/11/18 02:29:58;;;;;;;;;17.00;15.50;;;;;14.88;100.00;101716.97;2104994;28;46791;-51
2023/11/18 02:31:15;;;;;;;;;18.25;17.50;;;;;14.85;100.00;101724.16;2088489;28;46455;-52
2023/11/18 02:32:56;;;;;;;;;22.20;17.20;;;;;14.82;100.00;101724.22;2095194;28;47306;-52
2023/11/18 02:34:06;;;;;;;;;17.80;17.80;;;;;14.84;100.00;101722.41;2075503;28;46774;-51
2023/11/18 02:35:10;;;;;;;;;17.00;17.00;;;;;14.83;100.00;101726.88;2079237;28;46697;-54
2023/11/18 02:36:23;;;;;;;;;17.80;16.60;;;;;14.84;100.00;101727.75;2072728;28;46822;-49
2023/11/18 02:37:25;;;;;;;;;18.20;17.40;;;;;14.85;100.00;101734.84;2078771;28;46770;-50
2023/11/18 02:38:31;;;;;;;;;16.75;15.75;;;;;14.86;100.00;101742.81;2070460;28;46709;-51
2023/11/18 02:39:39;;;;;;;;;8.40;6.40;;;;;14.84;100.00;101741.97;2069938;28;46716;-52
2023/11/18 02:40:43;;;;;;;;;15.00;14.50;;;;;14.84;100.00;101725.06;2070358;28;46569;-50
2023/11/18 02:41:48;;;;;;;;;14.50;13.25;;;;;14.86;100.00;101744.63;2076562;28;46318;-51
2023/11/18 02:42:52;;;;;;;;;16.25;15.00;;;;;14.85;100.00;101741.06;2077969;28;46759;-50
2023/11/18 02:43:53;;;;;;;;;16.60;16.60;;;;;14.84;100.00;101752.66;2077047;28;46796;-51
2023/11/18 02:44:59;;;;;;;;;15.67;15.67;;;;;14.84;100.00;101751.78;2074561;28;46717;-49
2023/11/18 02:46:00;;;;;;;;;15.00;14.40;;;;;14.81;100.00;101752.75;2071964;28;47010;-51
2023/11/18 02:47:01;;;;;;;;;17.60;17.60;;;;;14.83;100.00;101753.59;2078553;28;46800;-50
2023/11/18 02:48:02;;;;;;;;;15.75;14.75;;;;;14.85;100.00;101753.53;2077297;28;46460;-54
2023/11/18 02:49:03;;;;;;;;;17.00;16.40;;;;;14.84;100.00;101752.66;2072364;28;46685;-52
2023/11/18 02:50:10;;;;;;;;;14.20;12.00;;;;;14.85;100.00;101756.22;2078737;28;46278;-49
2023/11/18 02:51:12;;;;;;;;;16.40;14.80;;;;;14.84;100.00;101747.31;2078000;28;46941;-47
2023/11/18 02:52:12;;;;;;;;;16.40;14.80;;;;;14.84;100.00;101744.66;2064895;28;46349;-52
2023/11/18 02:53:13;;;;;;;;;15.33;15.33;;;;;14.82;100.00;101741.13;2069281;28;46539;-51
2023/11/18 02:54:13;;;;;;;;;14.25;14.00;;;;;14.82;100.00;101741.13;2078682;28;46691;-53
2023/11/18 02:55:13;;;;;;;;;14.67;14.67;;;;;14.82;100.00;101742.94;2078145;28;46811;-52
2023/11/18 02:56:14;;;;;;;;;17.50;15.75;;;;;14.81;100.00;101739.38;2078242;28;46876;-50
2023/11/18 02:57:14;;;;;;;;;16.00;15.33;;;;;14.83;100.00;101736.66;2063369;28;46505;-50
2023/11/18 02:58:14;;;;;;;;;14.00;14.00;;;;;14.85;100.00;101740.19;2067749;28;46270;-52
2023/11/18 02:59:16;;;;;;;;;13.67;13.67;;;;;14.84;100.00;101739.31;2078556;28;46904;-51
2023/11/18 03:00:19;;;;;;;;;13.00;13.00;;;;;14.98;100.00;101739.84;2078045;28;47137;-51
2023/11/18 03:01:19;;;;;;;;;16.25;15.00;;;;;14.86;100.00;101731.25;2073848;28;46687;-47
2023/11/18 03:02:20;;;;;;;;;16.33;16.33;;;;;14.96;100.00;101732.78;2078169;28;46895;-55
2023/11/18 03:03:21;;;;;;;;;13.75;13.75;;;;;14.86;100.00;101725.91;2074099;28;46309;-51
2023/11/18 03:04:23;;;;;;;;;15.00;15.00;;;;;14.97;100.00;101724.75;2078487;28;46413;-48
2023/11/18 03:05:26;;;;;;;;;14.75;14.00;;;;;14.97;100.00;101724.75;2071714;28;46798;-51
2023/11/18 03:06:26;;;;;;;;;14.75;14.75;;;;;14.96;100.00;101722.09;2072643;28;46957;-50
2023/11/18 03:07:29;;;;;;;;;12.67;12.00;;;;;14.97;100.00;101724.75;2078499;28;46550;-53
2023/11/18 03:08:30;;;;;;;;;14.50;14.50;;;;;14.96;100.00;101720.31;2077653;28;46384;-54
2023/11/18 03:09:34;;;;;;;;;15.00;14.00;;;;;14.85;100.00;101709.00;2078628;28;46700;-53
2023/11/18 03:10:35;;;;;;;;;14.50;14.00;;;;;14.88;100.00;101703.59;2078692;28;46780;-50
2023/11/18 03:11:35;;;;;;;;;14.67;14.67;;;;;14.92;100.00;101707.06;2083151;28;46666;-50
2023/11/18 03:12:37;;;;;;;;;16.33;15.33;;;;;14.94;100.00;101697.22;2100335;28;46770;-52
2023/11/18 03:13:38;;;;;;;;;13.50;12.75;;;;;14.85;100.00;101698.31;2096450;28;46465;-51
2023/11/18 03:14:38;;;;;;;;;12.00;10.00;;;;;14.91;100.00;101698.19;2103564;28;46233;-49
2023/11/18 03:15:38;;;;;;;;;14.33;12.33;;;;;14.93;100.00;101704.34;2104236;28;45933;-52
2023/11/18 03:16:39;;;;;;;;;13.00;13.00;;;;;14.93;100.00;101693.66;2104256;27;46680;-52
2023/11/18 03:17:39;;;;;;;;;11.67;11.33;;;;;14.93;100.00;101687.44;2100937;28;46606;-55
2023/11/18 03:18:43;;;;;;;;;13.33;13.33;;;;;14.96;100.00;101690.91;2104608;28;46796;-52
2023/11/18 03:19:43;;;;;;;;;14.75;11.25;;;;;14.98;100.00;101688.19;2102261;27;46303;-49
2023/11/18 03:20:44;;;;;;;;;16.00;13.00;;;;;14.98;100.00;101683.72;2103427;28;46199;-51
2023/11/18 03:21:44;;;;;;;;;11.00;11.00;;;;;14.99;100.00;101682.84;2104958;28;45947;-50
2023/11/18 03:22:48;;;;;;;;;10.00;9.00;;;;;14.99;100.00;101676.59;2104371;28;46863;-51
2023/11/18 03:23:48;;;;;;;;;15.50;13.75;;;;;15.00;100.00;101670.34;2104667;28;46482;-50
2023/11/18 03:24:49;;;;;;;;;12.33;12.33;;;;;14.89;100.00;101678.63;2104755;28;46808;-48
2023/11/18 03:25:51;;;;;;;;;12.67;12.33;;;;;14.91;100.00;101679.47;2104686;28;46104;-50
2023/11/18 03:26:51;;;;;;;;;13.25;12.75;;;;;14.95;100.00;101673.13;2104261;28;46317;-53
2023/11/18 03:27:54;;;;;;;;;12.00;12.00;;;;;14.96;100.00;101674.00;2086403;28;46544;-50
2023/11/18 03:28:54;;;;;;;;;15.00;14.50;;;;;14.94;100.00;101673.16;2086965;28;46403;-52
2023/11/18 03:29:55;;;;;;;;;11.33;11.33;;;;;14.94;100.00;101665.13;2104722;28;46591;-49
2023/11/18 03:30:55;;;;;;;;;14.33;12.67;;;;;14.93;100.00;101658.03;2101548;28;46386;-51
2023/11/18 03:31:55;;;;;;;;;14.25;13.00;;;;;14.93;100.00;101652.69;2104080;28;46335;-51
2023/11/18 03:32:55;;;;;;;;;15.33;13.33;;;;;14.92;100.00;101650.94;2104509;28;46222;-52
2023/11/18 03:33:56;;;;;;;;;13.67;13.00;;;;;14.91;100.00;101642.03;2103986;28;46718;-47
2023/11/18 03:34:58;;;;;;;;;14.67;13.33;;;;;14.94;100.00;101638.41;2104378;28;46673;-51
2023/11/18 03:35:59;;;;;;;;;13.00;13.00;;;;;14.93;100.00;101625.97;2104704;28;46964;-50
2023/11/18 03:36:59;;;;;;;;;14.75;14.75;;;;;14.93;100.00;101632.19;2099790;27;46054;-49
2023/11/18 03:37:59;;;;;;;;;12.00;12.00;;;;;14.92;100.00;101627.75;2104769;28;46157;-55
2023/11/18 03:39:01;;;;;;;;;13.75;13.25;;;;;14.92;100.00;101613.53;2104599;28;46922;-49
2023/11/18 03:40:02;;;;;;;;;15.00;14.60;;;;;14.91;100.00;101612.66;2102885;27;46125;-52
2023/11/18 03:41:02;;;;;;;;;16.25;15.00;;;;;14.85;100.00;101609.22;2096544;28;46701;-50
2023/11/18 03:42:03;;;;;;;;;10.00;10.00;;;;;14.90;100.00;101610.03;2102166;28;46188;-50
2023/11/18 03:43:04;;;;;;;;;14.50;12.25;;;;;14.88;100.00;101602.03;2104684;28;47096;-51
2023/11/18 03:44:04;;;;;;;;;3.80;2.80;;;;;14.89;100.00;101598.44;2096742;28;46909;-53
2023/11/18 03:45:05;;;;;;;;;13.00;12.00;;;;;14.88;100.00;101599.38;2077443;28;46561;-50
2023/11/18 03:46:07;;;;;;;;;11.00;10.00;;;;;14.88;100.00;101594.03;2078333;28;47154;-51
2023/11/18 03:47:07;;;;;;;;;12.20;11.40;;;;;14.89;100.00;101594.91;2095503;28;47155;-52
2023/11/18 03:48:08;;;;;;;;;13.25;13.25;;;;;14.79;100.00;101599.59;2095671;28;46841;-49
2023/11/18 03:49:08;;;;;;;;;12.33;10.33;;;;;14.79;100.00;101598.72;2105110;28;46408;-49
2023/11/18 03:50:09;;;;;;;;;11.33;11.33;;;;;14.78;100.00;101600.50;2104306;28;46692;-54
2023/11/18 03:51:09;;;;;;;;;13.25;13.25;;;;;14.77;100.00;101595.22;2096256;28;46270;-49
2023/11/18 03:52:09;;;;;;;;;12.67;12.67;;;;;14.62;100.00;101596.47;2095702;28;46501;-49
2023/11/18 03:53:11;;;;;;;;;11.33;11.33;;;;;14.80;100.00;101601.34;2100706;28;46821;-48
2023/11/18 03:54:12;;;;;;;;;1.25;1.00;;;;;14.77;100.00;101595.22;2095657;27;46265;-48
2023/11/18 03:55:13;;;;;;;;;14.50;12.75;;;;;14.82;100.00;101606.66;2103987;28;46387;-50
2023/11/18 03:56:18;;;;;;;;;12.00;12.00;;;;;14.71;100.00;101606.91;2104252;28;46278;-50
2023/11/18 03:57:18;;;;;;;;;11.50;11.00;;;;;14.83;100.00;101609.28;2104430;28;46776;-50
2023/11/18 03:58:19;;;;;;;;;14.33;13.00;;;;;14.83;100.00;101608.41;2086685;28;46905;-47
2023/11/18 03:59:20;;;;;;;;;13.33;12.33;;;;;14.83;100.00;101609.28;2087632;28;46156;-49
2023/11/18 04:00:20;;;;;;;;;14.00;12.33;;;;;14.84;100.00;101612.81;2105671;28;46503;-50
2023/11/18 04:01:27;;;;;;;;;7.00;7.00;;;;;14.84;100.00;101612.81;2105895;28;46735;-51
2023/11/18 04:02:28;;;;;;;;;15.00;13.25;;;;;14.84;100.00;101613.69;2106267;28;46988;-51
2023/11/18 04:03:29;;;;;;;;;13.75;12.75;;;;;14.84;100.00;101605.69;2105359;28;46375;-53
2023/11/18 04:04:29;;;;;;;;;13.50;12.00;;;;;14.83;100.00;101598.59;2105530;28;46526;-50
2023/11/18 04:05:30;;;;;;;;;13.25;12.75;;;;;14.85;100.00;101596.75;2106280;28;46111;-51
2023/11/18 04:06:30;;;;;;;;;12.00;12.00;;;;;14.85;100.00;101596.75;2104306;28;46781;-49
2023/11/18 04:07:30;;;;;;;;;11.33;11.33;;;;;14.85;100.00;101607.44;2096360;28;46844;-51
2023/11/18 04:08:31;;;;;;;;;12.67;12.00;;;;;14.87;100.00;101602.09;2097051;28;46636;-54
2023/11/18 04:09:32;;;;;;;;;9.00;9.00;;;;;14.81;100.00;101604.91;2097009;28;46750;-53
2023/11/18 04:10:32;;;;;;;;;10.67;10.67;;;;;14.83;100.00;101606.59;2094247;28;46471;-48
2023/11/18 04:11:33;;;;;;;;;10.33;10.33;;;;;14.76;100.00;101604.16;2105611;28;46333;-52
2023/11/18 04:12:33;;;;;;;;;10.00;9.67;;;;;14.83;100.00;101605.72;2105668;28;46612;-53
2023/11/18 04:13:33;;;;;;;;;11.33;10.67;;;;;14.84;100.00;101597.66;2105301;28;46561;-52
2023/11/18 04:14:34;;;;;;;;;11.00;11.00;;;;;14.85;100.00;101607.44;2106110;28;46845;-49
2023/11/18 04:15:35;;;;;;;;;12.00;10.33;;;;;14.84;100.00;101597.66;2106036;28;46814;-52
2023/11/18 04:16:35;;;;;;;;;12.00;10.25;;;;;14.85;100.00;101601.22;2105628;28;46885;-51
2023/11/18 04:17:35;;;;;;;;;11.00;10.67;;;;;14.73;100.00;101597.94;2105511;28;46870;-48
2023/11/18 04:18:36;;;;;;;;;10.00;10.00;;;;;14.72;100.00;101603.31;2097015;28;46698;-50
2023/11/18 04:19:37;;;;;;;;;10.33;10.33;;;;;14.82;100.00;101601.31;2097166;28;46515;-49
2023/11/18 04:20:37;;;;;;;;;11.00;9.75;;;;;14.83;100.00;101597.72;2106042;28;46461;-50
2023/11/18 04:21:38;;;;;;;;;8.67;8.67;;;;;14.82;100.00;101602.19;2106315;28;46212;-51
2023/11/18 04:22:41;;;;;;;;;11.00;10.00;;;;;14.83;100.00;101598.59;2105777;28;46551;-50
2023/11/18 04:23:42;;;;;;;;;10.00;10.00;;;;;14.83;100.00;101597.72;2106041;28;46535;-47
2023/11/18 04:24:45;;;;;;;;;11.75;9.00;;;;;14.85;100.00;101595.88;2087699;28;46589;-49
2023/11/18 04:25:45;;;;;;;;;9.50;9.00;;;;;14.85;100.00;101593.19;2086558;28;46469;-51
2023/11/18 04:26:46;;;;;;;;;10.00;10.00;;;;;14.81;100.00;101588.84;2105574;28;46194;-53
2023/11/18 04:27:46;;;;;;;;;11.00;10.00;;;;;14.85;100.00;101586.06;2096621;28;46221;-50
2023/11/18 04:28:46;;;;;;;;;9.33;9.00;;;;;14.77;100.00;101582.72;2080378;28;45930;-51
2023/11/18 04:29:46;;;;;;;;;9.33;9.00;;;;;14.83;100.00;101590.56;2088296;28;46229;-48
2023/11/18 04:30:47;;;;;;;;;11.00;9.00;;;;;14.85;100.00;101591.41;2104494;27;46742;-48
2023/11/18 04:31:47;;;;;;;;;12.33;9.33;;;;;14.77;100.00;101597.88;2105448;28;46544;-48
2023/11/18 04:32:47;;;;;;;;;7.33;7.33;;;;;14.85;100.00;101603.88;2105913;28;47002;-48
2023/11/18 04:33:48;;;;;;;;;11.00;11.00;;;;;14.84;100.00;101613.69;2105458;27;46601;-47
2023/11/18 04:34:51;;;;;;;;;10.67;10.67;;;;;14.85;100.00;101617.25;2105404;28;46095;-47
2023/11/18 04:35:51;;;;;;;;;9.75;9.75;;;;;14.84;100.00;101611.03;2106044;28;46498;-52
2023/11/18 04:36:52;;;;;;;;;9.33;8.33;;;;;14.84;100.00;101612.81;2098891;28;46773;-50